sensor_id;sensor_type;location;lat;lon;timestamp;pressure;altitude;pressure_sealevel;temperature;humidity
5053;BME280;2545;50.892;5.740;2023-12-20T00:02:08;56435.66;;;-142.21;100.00
5053;BME280;2545;50.892;5.740;2023-12-20T00:04:33;56431.72;;;-142.21;100.00
5053;BME280;2545;50.892;5.740;2023-12-20T00:06:58;56453.28;;;-142.21;100.00
5053;BME280;2545;50.892;5.740;2023-12-20T00:09:24;56418.00;;;-142.21;100.00
5053;BME280;2545;50.892;5.740;2023-12-20T00:11:49;56445.44;;;-142.21;100.00
5053;BME280;2545;50.892;5.740;2023-12-20T00:14:14;56435.66;;;-142.21;100.00
5053;BME280;2545;50.892;5.740;2023-12-20T00:16:40;56421.91;;;-142.21;100.00
5053;BME280;2545;50.892;5.740;2023-12-20T00:19:08;56410.16;;;-142.21;100.00
5053;BME280;2545;50.892;5.740;2023-12-20T00:21:33;56429.75;;;-142.21;100.00
5053;BME280;2545;50.892;5.740;2023-12-20T00:24:00;56418.00;;;-142.21;100.00
5053;BME280;2545;50.892;5.740;2023-12-20T00:26:25;56451.34;;;-142.21;100.00
5053;BME280;2545;50.892;5.740;2023-12-20T00:28:51;56416.03;;;-142.21;100.00
5053;BME280;2545;50.892;5.740;2023-12-20T00:31:16;56423.88;;;-142.21;100.00
5053;BME280;2545;50.892;5.740;2023-12-20T00:33:41;56410.16;;;-142.21;100.00
5053;BME280;2545;50.892;5.740;2023-12-20T00:36:09;56463.09;;;-142.21;100.00
5053;BME280;2545;50.892;5.740;2023-12-20T00:38:34;56459.19;;;-142.21;100.00
5053;BME280;2545;50.892;5.740;2023-12-20T00:41:00;56418.00;;;-142.21;100.00
5053;BME280;2545;50.892;5.740;2023-12-20T00:43:25;56427.81;;;-142.21;100.00
5053;BME280;2545;50.892;5.740;2023-12-20T00:45:50;56429.75;;;-142.21;100.00
5053;BME280;2545;50.892;5.740;2023-12-20T00:48:16;56418.00;;;-142.21;100.00
5053;BME280;2545;50.892;5.740;2023-12-20T00:50:41;56470.94;;;-142.21;100.00
5053;BME280;2545;50.892;5.740;2023-12-20T00:53:06;56447.41;;;-142.21;100.00
5053;BME280;2545;50.892;5.740;2023-12-20T00:55:33;56472.91;;;-142.21;100.00
5053;BME280;2545;50.892;5.740;2023-12-20T00:57:58;56457.22;;;-142.21;100.00
5053;BME280;2545;50.892;5.740;2023-12-20T01:00:25;56445.44;;;-142.21;100.00
5053;BME280;2545;50.892;5.740;2023-12-20T01:02:51;56414.06;;;-142.21;100.00
5053;BME280;2545;50.892;5.740;2023-12-20T01:05:18;56468.97;;;-142.21;100.00
5053;BME280;2545;50.892;5.740;2023-12-20T01:07:44;56437.59;;;-142.21;100.00
5053;BME280;2545;50.892;5.740;2023-12-20T01:10:09;56402.31;;;-142.21;100.00
5053;BME280;2545;50.892;5.740;2023-12-20T01:12:36;56418.00;;;-142.21;100.00
5053;BME280;2545;50.892;5.740;2023-12-20T01:15:01;56423.88;;;-142.21;100.00
5053;BME280;2545;50.892;5.740;2023-12-20T01:17:26;56445.44;;;-142.21;100.00
5053;BME280;2545;50.892;5.740;2023-12-20T01:19:52;56429.75;;;-142.21;100.00
5053;BME280;2545;50.892;5.740;2023-12-20T01:22:17;56429.75;;;-142.21;100.00
5053;BME280;2545;50.892;5.740;2023-12-20T01:24:43;56406.22;;;-142.21;100.00
5053;BME280;2545;50.892;5.740;2023-12-20T01:27:08;56443.50;;;-142.21;100.00
5053;BME280;2545;50.892;5.740;2023-12-20T01:29:33;56431.72;;;-142.21;100.00
5053;BME280;2545;50.892;5.740;2023-12-20T01:32:00;56398.38;;;-142.21;100.00
5053;BME280;2545;50.892;5.740;2023-12-20T01:34:26;56418.00;;;-142.21;100.00
5053;BME280;2545;50.892;5.740;2023-12-20T01:36:51;56433.69;;;-142.21;100.00
5053;BME280;2545;50.892;5.740;2023-12-20T01:39:17;56414.06;;;-142.21;100.00
5053;BME280;2545;50.892;5.740;2023-12-20T01:41:43;56437.59;;;-142.21;100.00
5053;BME280;2545;50.892;5.740;2023-12-20T01:44:08;56423.88;;;-142.21;100.00
5053;BME280;2545;50.892;5.740;2023-12-20T01:46:34;56449.38;;;-142.21;100.00
5053;BME280;2545;50.892;5.740;2023-12-20T01:48:59;56441.53;;;-142.21;100.00
5053;BME280;2545;50.892;5.740;2023-12-20T01:51:25;56447.41;;;-142.21;100.00
5053;BME280;2545;50.892;5.740;2023-12-20T01:53:54;56441.53;;;-142.21;100.00
5053;BME280;2545;50.892;5.740;2023-12-20T01:56:20;56433.69;;;-142.21;100.00
5053;BME280;2545;50.892;5.740;2023-12-20T01:58:46;56418.00;;;-142.21;100.00
5053;BME280;2545;50.892;5.740;2023-12-20T02:01:13;56437.59;;;-142.21;100.00
5053;BME280;2545;50.892;5.740;2023-12-20T02:03:40;56406.22;;;-142.21;100.00
5053;BME280;2545;50.892;5.740;2023-12-20T02:06:07;56437.59;;;-142.21;100.00
5053;BME280;2545;50.892;5.740;2023-12-20T02:08:33;56449.38;;;-142.21;100.00
5053;BME280;2545;50.892;5.740;2023-12-20T02:10:59;56394.47;;;-142.21;100.00
5053;BME280;2545;50.892;5.740;2023-12-20T02:13:27;56437.59;;;-142.21;100.00
5053;BME280;2545;50.892;5.740;2023-12-20T02:15:54;56406.22;;;-142.21;100.00
5053;BME280;2545;50.892;5.740;2023-12-20T02:18:21;56414.06;;;-142.21;100.00
5053;BME280;2545;50.892;5.740;2023-12-20T02:20:47;56378.78;;;-142.21;100.00
5053;BME280;2545;50.892;5.740;2023-12-20T02:23:12;56439.56;;;-142.21;100.00
5053;BME280;2545;50.892;5.740;2023-12-20T02:25:37;56451.34;;;-142.21;100.00
5053;BME280;2545;50.892;5.740;2023-12-20T02:28:03;56429.75;;;-142.21;100.00
5053;BME280;2545;50.892;5.740;2023-12-20T02:30:29;56382.69;;;-142.21;100.00
5053;BME280;2545;50.892;5.740;2023-12-20T02:32:54;56408.19;;;-142.21;100.00
5053;BME280;2545;50.892;5.740;2023-12-20T02:35:20;56423.88;;;-142.21;100.00
5053;BME280;2545;50.892;5.740;2023-12-20T02:37:45;56414.06;;;-142.21;100.00
5053;BME280;2545;50.892;5.740;2023-12-20T02:40:10;56449.38;;;-142.21;100.00
5053;BME280;2545;50.892;5.740;2023-12-20T02:42:36;56396.44;;;-142.21;100.00
5053;BME280;2545;50.892;5.740;2023-12-20T02:45:02;56435.66;;;-142.21;100.00
5053;BME280;2545;50.892;5.740;2023-12-20T02:47:27;56425.84;;;-142.21;100.00
5053;BME280;2545;50.892;5.740;2023-12-20T02:49:53;56437.59;;;-142.21;100.00
5053;BME280;2545;50.892;5.740;2023-12-20T02:52:19;56423.88;;;-142.21;100.00
5053;BME280;2545;50.892;5.740;2023-12-20T02:54:44;56421.91;;;-142.21;100.00
5053;BME280;2545;50.892;5.740;2023-12-20T02:57:09;56414.06;;;-142.21;100.00
5053;BME280;2545;50.892;5.740;2023-12-20T02:59:34;56429.75;;;-142.21;100.00
5053;BME280;2545;50.892;5.740;2023-12-20T03:02:00;56423.88;;;-142.21;100.00
5053;BME280;2545;50.892;5.740;2023-12-20T03:04:25;56437.59;;;-142.21;100.00
5053;BME280;2545;50.892;5.740;2023-12-20T03:06:50;56421.91;;;-142.21;100.00
5053;BME280;2545;50.892;5.740;2023-12-20T03:09:16;56439.56;;;-142.21;100.00
5053;BME280;2545;50.892;5.740;2023-12-20T03:11:41;56414.06;;;-142.21;100.00
5053;BME280;2545;50.892;5.740;2023-12-20T03:14:06;56427.81;;;-142.21;100.00
5053;BME280;2545;50.892;5.740;2023-12-20T03:16:32;56419.97;;;-142.21;100.00
5053;BME280;2545;50.892;5.740;2023-12-20T03:18:58;56402.31;;;-142.21;100.00
5053;BME280;2545;50.892;5.740;2023-12-20T03:21:23;56433.69;;;-142.21;100.00
5053;BME280;2545;50.892;5.740;2023-12-20T03:23:49;56406.22;;;-142.21;100.00
5053;BME280;2545;50.892;5.740;2023-12-20T03:26:14;56402.31;;;-142.21;100.00
5053;BME280;2545;50.892;5.740;2023-12-20T03:28:40;56431.72;;;-142.21;100.00
5053;BME280;2545;50.892;5.740;2023-12-20T03:31:06;56418.00;;;-142.21;100.00
5053;BME280;2545;50.892;5.740;2023-12-20T03:33:31;56404.28;;;-142.21;100.00
5053;BME280;2545;50.892;5.740;2023-12-20T03:35:56;56418.00;;;-142.21;100.00
5053;BME280;2545;50.892;5.740;2023-12-20T03:38:22;56425.84;;;-142.21;100.00
5053;BME280;2545;50.892;5.740;2023-12-20T03:40:49;56465.06;;;-142.21;100.00
5053;BME280;2545;50.892;5.740;2023-12-20T03:43:15;56429.75;;;-142.21;100.00
5053;BME280;2545;50.892;5.740;2023-12-20T03:45:40;56421.91;;;-142.21;100.00
5053;BME280;2545;50.892;5.740;2023-12-20T03:48:09;56425.84;;;-142.21;100.00
5053;BME280;2545;50.892;5.740;2023-12-20T03:50:34;56410.16;;;-142.21;100.00
5053;BME280;2545;50.892;5.740;2023-12-20T03:53:01;56412.13;;;-142.21;100.00
5053;BME280;2545;50.892;5.740;2023-12-20T03:55:27;56431.72;;;-142.21;100.00
5053;BME280;2545;50.892;5.740;2023-12-20T03:57:53;56382.69;;;-142.21;100.00
5053;BME280;2545;50.892;5.740;2023-12-20T04:00:18;56441.53;;;-142.21;100.00
5053;BME280;2545;50.892;5.740;2023-12-20T04:02:44;56439.56;;;-142.21;100.00
5053;BME280;2545;50.892;5.740;2023-12-20T04:05:09;56429.75;;;-142.21;100.00
5053;BME280;2545;50.892;5.740;2023-12-20T04:07:36;56459.19;;;-142.21;100.00
5053;BME280;2545;50.892;5.740;2023-12-20T04:10:02;56455.25;;;-142.21;100.00
5053;BME280;2545;50.892;5.740;2023-12-20T04:12:30;56439.56;;;-142.21;100.00
5053;BME280;2545;50.892;5.740;2023-12-20T04:14:56;56435.66;;;-142.21;100.00
5053;BME280;2545;50.892;5.740;2023-12-20T04:17:21;56416.03;;;-142.21;100.00
5053;BME280;2545;50.892;5.740;2023-12-20T04:19:48;56459.19;;;-142.21;100.00
5053;BME280;2545;50.892;5.740;2023-12-20T04:22:13;56453.28;;;-142.21;100.00
5053;BME280;2545;50.892;5.740;2023-12-20T04:24:39;56402.31;;;-142.21;100.00
5053;BME280;2545;50.892;5.740;2023-12-20T04:27:04;56425.84;;;-142.21;100.00
5053;BME280;2545;50.892;5.740;2023-12-20T04:29:29;56439.56;;;-142.21;100.00
5053;BME280;2545;50.892;5.740;2023-12-20T04:31:56;56384.66;;;-142.21;100.00
5053;BME280;2545;50.892;5.740;2023-12-20T04:34:22;56421.91;;;-142.21;100.00
5053;BME280;2545;50.892;5.740;2023-12-20T04:36:47;56457.22;;;-142.21;100.00
5053;BME280;2545;50.892;5.740;2023-12-20T04:39:13;56423.88;;;-142.21;100.00
5053;BME280;2545;50.892;5.740;2023-12-20T04:41:39;56404.28;;;-142.21;100.00
5053;BME280;2545;50.892;5.740;2023-12-20T04:44:06;56433.69;;;-142.21;100.00
5053;BME280;2545;50.892;5.740;2023-12-20T04:46:31;56390.53;;;-142.21;100.00
5053;BME280;2545;50.892;5.740;2023-12-20T04:48:56;56445.44;;;-142.21;100.00
5053;BME280;2545;50.892;5.740;2023-12-20T04:51:22;56431.72;;;-142.21;100.00
5053;BME280;2545;50.892;5.740;2023-12-20T04:53:47;56416.03;;;-142.21;100.00
5053;BME280;2545;50.892;5.740;2023-12-20T04:56:14;56451.34;;;-142.21;100.00
5053;BME280;2545;50.892;5.740;2023-12-20T04:58:39;56408.19;;;-142.21;100.00
5053;BME280;2545;50.892;5.740;2023-12-20T05:01:06;56398.38;;;-142.21;100.00
5053;BME280;2545;50.892;5.740;2023-12-20T05:03:32;56425.84;;;-142.21;100.00
5053;BME280;2545;50.892;5.740;2023-12-20T05:05:57;56412.13;;;-142.21;100.00
5053;BME280;2545;50.892;5.740;2023-12-20T05:08:23;56437.59;;;-142.21;100.00
5053;BME280;2545;50.892;5.740;2023-12-20T05:10:48;56439.56;;;-142.21;100.00
5053;BME280;2545;50.892;5.740;2023-12-20T05:13:14;56457.22;;;-142.21;100.00
5053;BME280;2545;50.892;5.740;2023-12-20T05:15:39;56472.91;;;-142.21;100.00
5053;BME280;2545;50.892;5.740;2023-12-20T05:18:04;56386.63;;;-142.21;100.00
5053;BME280;2545;50.892;5.740;2023-12-20T05:20:30;56418.00;;;-142.21;100.00
5053;BME280;2545;50.892;5.740;2023-12-20T05:22:55;56406.22;;;-142.21;100.00
5053;BME280;2545;50.892;5.740;2023-12-20T05:25:21;56429.75;;;-142.21;100.00
5053;BME280;2545;50.892;5.740;2023-12-20T05:27:47;56388.59;;;-142.21;100.00
5053;BME280;2545;50.892;5.740;2023-12-20T05:30:13;56412.13;;;-142.21;100.00
5053;BME280;2545;50.892;5.740;2023-12-20T05:32:39;56414.06;;;-142.21;100.00
5053;BME280;2545;50.892;5.740;2023-12-20T05:35:04;56410.16;;;-142.21;100.00
5053;BME280;2545;50.892;5.740;2023-12-20T05:37:29;56453.28;;;-142.21;100.00
5053;BME280;2545;50.892;5.740;2023-12-20T05:39:55;56445.44;;;-142.21;100.00
5053;BME280;2545;50.892;5.740;2023-12-20T05:42:20;56465.06;;;-142.21;100.00
5053;BME280;2545;50.892;5.740;2023-12-20T05:44:45;56423.88;;;-142.21;100.00
5053;BME280;2545;50.892;5.740;2023-12-20T05:47:10;56441.53;;;-142.21;100.00
5053;BME280;2545;50.892;5.740;2023-12-20T05:49:36;56410.16;;;-142.21;100.00
5053;BME280;2545;50.892;5.740;2023-12-20T05:52:01;56429.75;;;-142.21;100.00
5053;BME280;2545;50.892;5.740;2023-12-20T05:54:26;56429.75;;;-142.21;100.00
5053;BME280;2545;50.892;5.740;2023-12-20T05:56:52;56400.34;;;-142.21;100.00
5053;BME280;2545;50.892;5.740;2023-12-20T05:59:17;56431.72;;;-142.21;100.00
5053;BME280;2545;50.892;5.740;2023-12-20T06:01:42;56439.56;;;-142.21;100.00
5053;BME280;2545;50.892;5.740;2023-12-20T06:04:08;56451.34;;;-142.21;100.00
5053;BME280;2545;50.892;5.740;2023-12-20T06:06:33;56427.81;;;-142.21;100.00
5053;BME280;2545;50.892;5.740;2023-12-20T06:08:58;56408.19;;;-142.21;100.00
5053;BME280;2545;50.892;5.740;2023-12-20T06:11:24;56427.81;;;-142.21;100.00
5053;BME280;2545;50.892;5.740;2023-12-20T06:13:50;56412.13;;;-142.21;100.00
5053;BME280;2545;50.892;5.740;2023-12-20T06:16:18;56451.34;;;-142.21;100.00
5053;BME280;2545;50.892;5.740;2023-12-20T06:18:44;56400.34;;;-142.21;100.00
5053;BME280;2545;50.892;5.740;2023-12-20T06:21:10;56437.59;;;-142.21;100.00
5053;BME280;2545;50.892;5.740;2023-12-20T06:23:38;56423.88;;;-142.21;100.00
5053;BME280;2545;50.892;5.740;2023-12-20T06:26:03;56427.81;;;-142.21;100.00
5053;BME280;2545;50.892;5.740;2023-12-20T06:28:29;56474.88;;;-142.21;100.00
5053;BME280;2545;50.892;5.740;2023-12-20T06:30:55;56433.69;;;-142.21;100.00
5053;BME280;2545;50.892;5.740;2023-12-20T06:33:23;56425.84;;;-142.21;100.00
5053;BME280;2545;50.892;5.740;2023-12-20T06:35:49;56423.88;;;-142.21;100.00
5053;BME280;2545;50.892;5.740;2023-12-20T06:38:15;56418.00;;;-142.21;100.00
5053;BME280;2545;50.892;5.740;2023-12-20T06:40:41;56398.38;;;-142.21;100.00
5053;BME280;2545;50.892;5.740;2023-12-20T06:43:09;56431.72;;;-142.21;100.00
5053;BME280;2545;50.892;5.740;2023-12-20T06:45:34;56421.91;;;-142.21;100.00
5053;BME280;2545;50.892;5.740;2023-12-20T06:47:59;56443.50;;;-142.21;100.00
5053;BME280;2545;50.892;5.740;2023-12-20T06:50:24;56433.69;;;-142.21;100.00
5053;BME280;2545;50.892;5.740;2023-12-20T06:52:50;56398.38;;;-142.21;100.00
5053;BME280;2545;50.892;5.740;2023-12-20T06:55:16;56447.41;;;-142.21;100.00
5053;BME280;2545;50.892;5.740;2023-12-20T06:57:42;56437.59;;;-142.21;100.00
5053;BME280;2545;50.892;5.740;2023-12-20T07:00:08;56418.00;;;-142.21;100.00
5053;BME280;2545;50.892;5.740;2023-12-20T07:02:33;56421.91;;;-142.21;100.00
5053;BME280;2545;50.892;5.740;2023-12-20T07:04:59;56476.81;;;-142.21;100.00
5053;BME280;2545;50.892;5.740;2023-12-20T07:07:24;56418.00;;;-142.21;100.00
5053;BME280;2545;50.892;5.740;2023-12-20T07:09:50;56410.16;;;-142.21;100.00
5053;BME280;2545;50.892;5.740;2023-12-20T07:12:15;56449.38;;;-142.21;100.00
5053;BME280;2545;50.892;5.740;2023-12-20T07:14:40;56435.66;;;-142.21;100.00
5053;BME280;2545;50.892;5.740;2023-12-20T07:17:07;56402.31;;;-142.21;100.00
5053;BME280;2545;50.892;5.740;2023-12-20T07:19:37;56419.97;;;-142.21;100.00
5053;BME280;2545;50.892;5.740;2023-12-20T07:22:04;56421.91;;;-142.21;100.00
5053;BME280;2545;50.892;5.740;2023-12-20T07:24:29;56429.75;;;-142.21;100.00
5053;BME280;2545;50.892;5.740;2023-12-20T07:26:55;56455.25;;;-142.21;100.00
5053;BME280;2545;50.892;5.740;2023-12-20T07:29:20;56427.81;;;-142.21;100.00
5053;BME280;2545;50.892;5.740;2023-12-20T07:31:49;56404.28;;;-142.21;100.00
5053;BME280;2545;50.892;5.740;2023-12-20T07:34:14;56414.06;;;-142.21;100.00
5053;BME280;2545;50.892;5.740;2023-12-20T07:36:39;56418.00;;;-142.21;100.00
5053;BME280;2545;50.892;5.740;2023-12-20T07:39:06;56435.66;;;-142.21;100.00
5053;BME280;2545;50.892;5.740;2023-12-20T07:41:31;56406.22;;;-142.21;100.00
5053;BME280;2545;50.892;5.740;2023-12-20T07:43:56;56443.50;;;-142.21;100.00
5053;BME280;2545;50.892;5.740;2023-12-20T07:46:22;56437.59;;;-142.21;100.00
5053;BME280;2545;50.892;5.740;2023-12-20T07:48:50;56398.38;;;-142.21;100.00
5053;BME280;2545;50.892;5.740;2023-12-20T07:51:16;56419.97;;;-142.21;100.00
5053;BME280;2545;50.892;5.740;2023-12-20T07:53:41;56441.53;;;-142.21;100.00
5053;BME280;2545;50.892;5.740;2023-12-20T07:56:14;56402.31;;;-142.21;100.00
5053;BME280;2545;50.892;5.740;2023-12-20T07:58:40;56421.91;;;-142.21;100.00
5053;BME280;2545;50.892;5.740;2023-12-20T08:01:05;56427.81;;;-142.21;100.00
5053;BME280;2545;50.892;5.740;2023-12-20T08:03:31;56437.59;;;-142.21;100.00
5053;BME280;2545;50.892;5.740;2023-12-20T08:05:56;56421.91;;;-142.21;100.00
5053;BME280;2545;50.892;5.740;2023-12-20T08:08:24;56429.75;;;-142.21;100.00
5053;BME280;2545;50.892;5.740;2023-12-20T08:10:49;56459.19;;;-142.21;100.00
5053;BME280;2545;50.892;5.740;2023-12-20T08:13:15;56441.53;;;-142.21;100.00
5053;BME280;2545;50.892;5.740;2023-12-20T08:15:41;56437.59;;;-142.21;100.00
5053;BME280;2545;50.892;5.740;2023-12-20T08:18:06;56418.00;;;-142.21;100.00
5053;BME280;2545;50.892;5.740;2023-12-20T08:20:31;56441.53;;;-142.21;100.00
5053;BME280;2545;50.892;5.740;2023-12-20T08:22:57;56412.13;;;-142.21;100.00
5053;BME280;2545;50.892;5.740;2023-12-20T08:25:22;56433.69;;;-142.21;100.00
5053;BME280;2545;50.892;5.740;2023-12-20T08:27:47;56441.53;;;-142.21;100.00
5053;BME280;2545;50.892;5.740;2023-12-20T08:30:12;56443.50;;;-142.21;100.00
5053;BME280;2545;50.892;5.740;2023-12-20T08:32:38;56427.81;;;-142.21;100.00
5053;BME280;2545;50.892;5.740;2023-12-20T08:35:04;56443.50;;;-142.21;100.00
5053;BME280;2545;50.892;5.740;2023-12-20T08:37:29;56406.22;;;-142.21;100.00
5053;BME280;2545;50.892;5.740;2023-12-20T08:39:55;56435.66;;;-142.21;100.00
5053;BME280;2545;50.892;5.740;2023-12-20T08:42:21;56408.19;;;-142.21;100.00
5053;BME280;2545;50.892;5.740;2023-12-20T08:44:46;56433.69;;;-142.21;100.00
5053;BME280;2545;50.892;5.740;2023-12-20T08:47:12;56410.16;;;-142.21;100.00
5053;BME280;2545;50.892;5.740;2023-12-20T08:49:38;56396.44;;;-142.21;100.00
5053;BME280;2545;50.892;5.740;2023-12-20T08:52:05;56408.19;;;-142.21;100.00
5053;BME280;2545;50.892;5.740;2023-12-20T08:54:30;56419.97;;;-142.21;100.00
5053;BME280;2545;50.892;5.740;2023-12-20T08:56:55;56429.75;;;-142.21;100.00
5053;BME280;2545;50.892;5.740;2023-12-20T08:59:21;56443.50;;;-142.21;100.00
5053;BME280;2545;50.892;5.740;2023-12-20T09:01:48;56416.03;;;-142.21;100.00
5053;BME280;2545;50.892;5.740;2023-12-20T09:04:19;56437.59;;;-142.21;100.00
5053;BME280;2545;50.892;5.740;2023-12-20T09:06:46;56461.13;;;-142.21;100.00
5053;BME280;2545;50.892;5.740;2023-12-20T09:09:11;56431.72;;;-142.21;100.00
5053;BME280;2545;50.892;5.740;2023-12-20T09:11:39;56418.00;;;-142.21;100.00
5053;BME280;2545;50.892;5.740;2023-12-20T09:14:04;56439.56;;;-142.21;100.00
5053;BME280;2545;50.892;5.740;2023-12-20T09:16:29;56439.56;;;-142.21;100.00
5053;BME280;2545;50.892;5.740;2023-12-20T09:18:56;56421.91;;;-142.21;100.00
5053;BME280;2545;50.892;5.740;2023-12-20T09:21:23;56427.81;;;-142.21;100.00
5053;BME280;2545;50.892;5.740;2023-12-20T09:23:49;56416.03;;;-142.21;100.00
5053;BME280;2545;50.892;5.740;2023-12-20T09:26:15;56431.72;;;-142.21;100.00
5053;BME280;2545;50.892;5.740;2023-12-20T09:28:41;56418.00;;;-142.21;100.00
5053;BME280;2545;50.892;5.740;2023-12-20T09:31:07;56414.06;;;-142.21;100.00
5053;BME280;2545;50.892;5.740;2023-12-20T09:33:33;56410.16;;;-142.21;100.00
5053;BME280;2545;50.892;5.740;2023-12-20T09:35:59;56431.72;;;-142.21;100.00
5053;BME280;2545;50.892;5.740;2023-12-20T09:38:24;56400.34;;;-142.21;100.00
5053;BME280;2545;50.892;5.740;2023-12-20T09:40:50;56384.66;;;-142.21;100.00
5053;BME280;2545;50.892;5.740;2023-12-20T09:43:19;56449.38;;;-142.21;100.00
5053;BME280;2545;50.892;5.740;2023-12-20T09:45:46;56380.75;;;-142.21;100.00
5053;BME280;2545;50.892;5.740;2023-12-20T09:48:17;56419.97;;;-142.21;100.00
5053;BME280;2545;50.892;5.740;2023-12-20T09:50:43;56447.41;;;-142.21;100.00
5053;BME280;2545;50.892;5.740;2023-12-20T09:53:10;56404.28;;;-142.21;100.00
5053;BME280;2545;50.892;5.740;2023-12-20T09:55:38;56410.16;;;-142.21;100.00
5053;BME280;2545;50.892;5.740;2023-12-20T09:58:07;56429.75;;;-142.21;100.00
5053;BME280;2545;50.892;5.740;2023-12-20T10:00:34;56447.41;;;-142.21;100.00
5053;BME280;2545;50.892;5.740;2023-12-20T10:03:00;56439.56;;;-142.21;100.00
5053;BME280;2545;50.892;5.740;2023-12-20T10:05:28;56445.44;;;-142.21;100.00
5053;BME280;2545;50.892;5.740;2023-12-20T10:07:55;56445.44;;;-142.21;100.00
5053;BME280;2545;50.892;5.740;2023-12-20T10:10:21;56463.09;;;-142.21;99.85
5053;BME280;2545;50.892;5.740;2023-12-20T10:13:05;56441.53;;;-142.21;98.69
5053;BME280;2545;50.892;5.740;2023-12-20T10:15:35;56425.84;;;-142.21;97.38
5053;BME280;2545;50.892;5.740;2023-12-20T10:18:02;56410.16;;;-142.21;97.60
5053;BME280;2545;50.892;5.740;2023-12-20T10:20:30;56433.69;;;-142.21;97.00
5053;BME280;2545;50.892;5.740;2023-12-20T10:22:57;56418.00;;;-142.21;96.98
5053;BME280;2545;50.892;5.740;2023-12-20T10:25:23;56443.50;;;-142.21;94.83
5053;BME280;2545;50.892;5.740;2023-12-20T10:27:50;56400.34;;;-142.21;95.37
5053;BME280;2545;50.892;5.740;2023-12-20T10:30:15;56410.16;;;-142.21;94.84
5053;BME280;2545;50.892;5.740;2023-12-20T10:32:41;56404.28;;;-142.21;94.03
5053;BME280;2545;50.892;5.740;2023-12-20T10:35:07;56425.84;;;-142.21;94.36
5053;BME280;2545;50.892;5.740;2023-12-20T10:37:39;56425.84;;;-142.21;93.80
5053;BME280;2545;50.892;5.740;2023-12-20T10:40:06;56439.56;;;-142.21;94.68
5053;BME280;2545;50.892;5.740;2023-12-20T10:42:32;56437.59;;;-142.21;94.24
5053;BME280;2545;50.892;5.740;2023-12-20T10:45:01;56388.59;;;-142.21;95.03
5053;BME280;2545;50.892;5.740;2023-12-20T10:47:27;56431.72;;;-142.21;95.83
5053;BME280;2545;50.892;5.740;2023-12-20T10:49:54;56412.13;;;-142.21;96.02
5053;BME280;2545;50.892;5.740;2023-12-20T10:52:23;56412.13;;;-142.21;94.44
5053;BME280;2545;50.892;5.740;2023-12-20T10:54:48;56398.38;;;-142.21;96.15
5053;BME280;2545;50.892;5.740;2023-12-20T10:57:18;56433.69;;;-142.21;96.22
5053;BME280;2545;50.892;5.740;2023-12-20T10:59:44;56447.41;;;-142.21;95.95
5053;BME280;2545;50.892;5.740;2023-12-20T11:02:12;56400.34;;;-142.21;96.81
5053;BME280;2545;50.892;5.740;2023-12-20T11:04:49;56429.75;;;-142.21;96.60
5053;BME280;2545;50.892;5.740;2023-12-20T11:07:38;56410.16;;;-142.21;95.68
5053;BME280;2545;50.892;5.740;2023-12-20T11:10:29;56437.59;;;-142.21;94.97
5053;BME280;2545;50.892;5.740;2023-12-20T11:13:07;56412.13;;;-142.21;93.73
5053;BME280;2545;50.892;5.740;2023-12-20T11:15:38;56429.75;;;-142.21;94.75
5053;BME280;2545;50.892;5.740;2023-12-20T11:18:04;56431.72;;;-142.21;93.94
5053;BME280;2545;50.892;5.740;2023-12-20T11:20:38;56418.00;;;-142.21;94.55
5053;BME280;2545;50.892;5.740;2023-12-20T11:23:06;56416.03;;;-142.21;94.26
5053;BME280;2545;50.892;5.740;2023-12-20T11:25:54;56437.59;;;-142.21;93.94
5053;BME280;2545;50.892;5.740;2023-12-20T11:28:23;56416.03;;;-142.21;93.64
5053;BME280;2545;50.892;5.740;2023-12-20T11:30:51;56429.75;;;-142.21;93.17
5053;BME280;2545;50.892;5.740;2023-12-20T11:33:22;56431.72;;;-142.21;94.20
5053;BME280;2545;50.892;5.740;2023-12-20T11:35:48;56402.31;;;-142.21;94.71
5053;BME280;2545;50.892;5.740;2023-12-20T11:38:14;56443.50;;;-142.21;94.12
5053;BME280;2545;50.892;5.740;2023-12-20T11:40:41;56396.44;;;-142.21;94.59
5053;BME280;2545;50.892;5.740;2023-12-20T11:43:07;56416.03;;;-142.21;95.56
5053;BME280;2545;50.892;5.740;2023-12-20T11:45:32;56423.88;;;-142.21;94.67
5053;BME280;2545;50.892;5.740;2023-12-20T11:48:00;56439.56;;;-142.21;94.62
5053;BME280;2545;50.892;5.740;2023-12-20T11:50:25;56461.13;;;-142.21;94.85
5053;BME280;2545;50.892;5.740;2023-12-20T11:52:52;56402.31;;;-142.21;94.99
5053;BME280;2545;50.892;5.740;2023-12-20T11:55:18;56459.19;;;-142.21;95.83
5053;BME280;2545;50.892;5.740;2023-12-20T11:57:45;56441.53;;;-142.21;94.87
5053;BME280;2545;50.892;5.740;2023-12-20T12:00:14;56402.31;;;-142.21;94.98
5053;BME280;2545;50.892;5.740;2023-12-20T12:02:40;56453.28;;;-142.21;95.29
5053;BME280;2545;50.892;5.740;2023-12-20T12:05:06;56429.75;;;-142.21;95.11
5053;BME280;2545;50.892;5.740;2023-12-20T12:07:33;56398.38;;;-142.21;94.46
5053;BME280;2545;50.892;5.740;2023-12-20T12:09:59;56386.63;;;-142.21;93.93
5053;BME280;2545;50.892;5.740;2023-12-20T12:12:26;56425.84;;;-142.21;94.30
5053;BME280;2545;50.892;5.740;2023-12-20T12:14:52;56453.28;;;-142.21;93.92
5053;BME280;2545;50.892;5.740;2023-12-20T12:17:18;56414.06;;;-142.21;94.77
5053;BME280;2545;50.892;5.740;2023-12-20T12:19:43;56386.63;;;-142.21;95.06
5053;BME280;2545;50.892;5.740;2023-12-20T12:22:16;56408.19;;;-142.21;95.57
5053;BME280;2545;50.892;5.740;2023-12-20T12:24:46;56421.91;;;-142.21;96.31
5053;BME280;2545;50.892;5.740;2023-12-20T12:27:13;56406.22;;;-142.21;96.89
5053;BME280;2545;50.892;5.740;2023-12-20T12:29:39;56402.31;;;-142.21;97.27
5053;BME280;2545;50.892;5.740;2023-12-20T12:32:08;56423.88;;;-142.21;98.85
5053;BME280;2545;50.892;5.740;2023-12-20T12:34:34;56402.31;;;-142.21;98.56
5053;BME280;2545;50.892;5.740;2023-12-20T12:37:01;56427.81;;;-142.21;100.00
5053;BME280;2545;50.892;5.740;2023-12-20T12:39:27;56425.84;;;-142.21;100.00
5053;BME280;2545;50.892;5.740;2023-12-20T12:41:53;56404.28;;;-142.21;100.00
5053;BME280;2545;50.892;5.740;2023-12-20T12:44:19;56423.88;;;-142.21;100.00
5053;BME280;2545;50.892;5.740;2023-12-20T12:46:45;56408.19;;;-142.21;100.00
5053;BME280;2545;50.892;5.740;2023-12-20T12:49:11;56400.34;;;-142.21;100.00